BTK7533 WIHH-WAHI
Flight info
| Callsign | BTK7533 |
|---|---|
| Flight time | 0h 45m |
| Altitude | 31000 |
| Route | PW W17 CLP |
| Aircraft | A320/M-SDE3FGHIRWY/LB1 |
Departure
| Time | 2026-04-28 04:40 |
|---|---|
| Airport | Halim Perdanakusuma International Airport (WIHH) |
Arrival
| Time | 2026-04-28 05:25 |
|---|---|
| Airport | Yogyakarta International Airport (WAHI) |
| Time | Latitude | Longitude | Altitude | Speed | Heading |
|---|---|---|---|---|---|
| 2026-04-28 04:19 | -6.26597 | 106.88637 | 0 ft | 0 kts | 335° |
| 2026-04-28 04:30 | -6.26600 | 106.88638 | 79 ft | 3 kts | 335° |
| 2026-04-28 04:30 | -6.26619 | 106.88647 | 38 ft | 3 kts | 335° |
| 2026-04-28 04:30 | -6.26637 | 106.88655 | 94 ft | 2 kts | 328° |
| 2026-04-28 04:30 | -6.26644 | 106.88661 | 96 ft | 1 kts | 275° |
| 2026-04-28 04:31 | -6.26644 | 106.88669 | 96 ft | 1 kts | 251° |
| 2026-04-28 04:31 | -6.26641 | 106.88678 | 94 ft | 1 kts | 247° |
| 2026-04-28 04:31 | -6.26638 | 106.88685 | 95 ft | 1 kts | 246° |
| 2026-04-28 04:31 | -6.26635 | 106.88693 | 94 ft | 1 kts | 246° |
| 2026-04-28 04:32 | -6.26634 | 106.88693 | 93 ft | 0 kts | 246° |
| 2026-04-28 04:33 | -6.26638 | 106.88684 | 94 ft | 6 kts | 246° |
| 2026-04-28 04:34 | -6.26655 | 106.88647 | 95 ft | 5 kts | 245° |
| 2026-04-28 04:34 | -6.26673 | 106.88608 | 95 ft | 8 kts | 245° |
| 2026-04-28 04:34 | -6.26700 | 106.88551 | 94 ft | 8 kts | 245° |
| 2026-04-28 04:34 | -6.26722 | 106.88502 | 96 ft | 7 kts | 245° |
| 2026-04-28 04:35 | -6.26757 | 106.88481 | 94 ft | 6 kts | 183° |
| 2026-04-28 04:35 | -6.26804 | 106.88498 | 94 ft | 7 kts | 156° |
| 2026-04-28 04:35 | -6.26823 | 106.88507 | 94 ft | 0 kts | 155° |
| 2026-04-28 04:36 | -6.26847 | 106.88518 | 96 ft | 8 kts | 155° |
| 2026-04-28 04:36 | -6.26923 | 106.88526 | 96 ft | 13 kts | 210° |
| 2026-04-28 04:36 | -6.26968 | 106.88446 | 93 ft | 17 kts | 246° |
| 2026-04-28 04:37 | -6.27029 | 106.88314 | 93 ft | 22 kts | 245° |
| 2026-04-28 04:37 | -6.27095 | 106.88170 | 94 ft | 23 kts | 245° |
| 2026-04-28 04:37 | -6.27147 | 106.88019 | 95 ft | 22 kts | 269° |
| 2026-04-28 04:37 | -6.27169 | 106.87912 | 96 ft | 13 kts | 222° |
| 2026-04-28 04:38 | -6.27211 | 106.87919 | 97 ft | 5 kts | 90° |
| 2026-04-28 04:38 | -6.27199 | 106.87946 | 97 ft | 3 kts | 66° |
| 2026-04-28 04:38 | -6.27198 | 106.87948 | 96 ft | 0 kts | 66° |
| 2026-04-28 04:39 | -6.27168 | 106.88014 | 96 ft | 41 kts | 65° |
| 2026-04-28 04:39 | -6.26937 | 106.88517 | 93 ft | 113 kts | 65° |
| 2026-04-28 04:39 | -6.26529 | 106.89406 | 106 ft | 165 kts | 67° |
| 2026-04-28 04:40 | -6.26048 | 106.90482 | 699 ft | 170 kts | 66° |
| 2026-04-28 04:40 | -6.25569 | 106.91580 | 1492 ft | 173 kts | 75° |
| 2026-04-28 04:40 | -6.25631 | 106.92800 | 1968 ft | 188 kts | 114° |
| 2026-04-28 04:40 | -6.26304 | 106.94018 | 2262 ft | 212 kts | 123° |
| 2026-04-28 04:41 | -6.27173 | 106.95320 | 2666 ft | 236 kts | 124° |
| 2026-04-28 04:41 | -6.28138 | 106.96760 | 3099 ft | 260 kts | 123° |
| 2026-04-28 04:41 | -6.29142 | 106.98311 | 3871 ft | 269 kts | 122° |
| 2026-04-28 04:41 | -6.29806 | 106.99371 | 4465 ft | 271 kts | 122° |
| 2026-04-28 04:42 | -6.30795 | 107.00992 | 5389 ft | 273 kts | 121° |
| 2026-04-28 04:42 | -6.31786 | 107.02656 | 6307 ft | 276 kts | 121° |
| 2026-04-28 04:42 | -6.32766 | 107.04329 | 7173 ft | 279 kts | 121° |
| 2026-04-28 04:42 | -6.33831 | 107.05922 | 7975 ft | 283 kts | 134° |
| 2026-04-28 04:43 | -6.35431 | 107.07080 | 8772 ft | 287 kts | 153° |
| 2026-04-28 04:43 | -6.37223 | 107.07989 | 9584 ft | 290 kts | 153° |
| 2026-04-28 04:43 | -6.39040 | 107.08911 | 10244 ft | 300 kts | 150° |
| 2026-04-28 04:43 | -6.40749 | 107.10243 | 10453 ft | 324 kts | 134° |
| 2026-04-28 04:44 | -6.42082 | 107.12009 | 10724 ft | 342 kts | 121° |
| 2026-04-28 04:44 | -6.43108 | 107.14195 | 11321 ft | 349 kts | 113° |
| 2026-04-28 04:44 | -6.44060 | 107.16451 | 12010 ft | 353 kts | 114° |
| 2026-04-28 04:44 | -6.45055 | 107.18721 | 12692 ft | 356 kts | 114° |
| 2026-04-28 04:45 | -6.46077 | 107.21007 | 13350 ft | 360 kts | 115° |
| 2026-04-28 04:45 | -6.47109 | 107.23310 | 14002 ft | 363 kts | 115° |
| 2026-04-28 04:45 | -6.48147 | 107.25639 | 14635 ft | 367 kts | 115° |
| 2026-04-28 04:45 | -6.49190 | 107.27993 | 15253 ft | 370 kts | 114° |
| 2026-04-28 04:46 | -6.50238 | 107.30367 | 15846 ft | 373 kts | 114° |
| 2026-04-28 04:46 | -6.51296 | 107.32765 | 16435 ft | 376 kts | 114° |
| 2026-04-28 04:46 | -6.52359 | 107.35177 | 17024 ft | 379 kts | 114° |
| 2026-04-28 04:46 | -6.53427 | 107.37610 | 17578 ft | 382 kts | 114° |
| 2026-04-28 04:47 | -6.54521 | 107.40050 | 18118 ft | 385 kts | 117° |
| 2026-04-28 04:47 | -6.56006 | 107.42293 | 18635 ft | 388 kts | 130° |
| 2026-04-28 04:47 | -6.57992 | 107.44148 | 19120 ft | 393 kts | 143° |
| 2026-04-28 04:47 | -6.60376 | 107.45495 | 19611 ft | 396 kts | 157° |
| 2026-04-28 04:48 | -6.63032 | 107.46267 | 20077 ft | 400 kts | 168° |
| 2026-04-28 04:48 | -6.65776 | 107.46802 | 20511 ft | 403 kts | 168° |
| 2026-04-28 04:48 | -6.68540 | 107.47342 | 20894 ft | 407 kts | 168° |
| 2026-04-28 04:48 | -6.71330 | 107.47888 | 21266 ft | 410 kts | 168° |
| 2026-04-28 04:49 | -6.74140 | 107.48442 | 21646 ft | 413 kts | 168° |
| 2026-04-28 04:49 | -6.76970 | 107.49003 | 21988 ft | 416 kts | 168° |
| 2026-04-28 04:49 | -6.79823 | 107.49569 | 22328 ft | 419 kts | 168° |
| 2026-04-28 04:49 | -6.82682 | 107.50191 | 22683 ft | 421 kts | 163° |
| 2026-04-28 04:50 | -6.85398 | 107.51306 | 23036 ft | 423 kts | 151° |
| 2026-04-28 04:50 | -6.87832 | 107.52971 | 23370 ft | 426 kts | 139° |
| 2026-04-28 04:50 | -6.89885 | 107.55122 | 23696 ft | 428 kts | 127° |
| 2026-04-28 04:50 | -6.91458 | 107.57673 | 24006 ft | 431 kts | 117° |
| 2026-04-28 04:51 | -6.92814 | 107.60368 | 24313 ft | 434 kts | 117° |
| 2026-04-28 04:51 | -6.94178 | 107.63088 | 24667 ft | 436 kts | 117° |
| 2026-04-28 04:51 | -6.95544 | 107.65815 | 25011 ft | 437 kts | 117° |
| 2026-04-28 04:51 | -6.96916 | 107.68553 | 25357 ft | 439 kts | 117° |
| 2026-04-28 04:52 | -6.98293 | 107.71297 | 25685 ft | 440 kts | 117° |
| 2026-04-28 04:52 | -6.99675 | 107.74049 | 25993 ft | 442 kts | 117° |
| 2026-04-28 04:52 | -7.01064 | 107.76813 | 26292 ft | 444 kts | 117° |
| 2026-04-28 04:52 | -7.02463 | 107.79591 | 26581 ft | 445 kts | 117° |
| 2026-04-28 04:53 | -7.03863 | 107.82379 | 26850 ft | 447 kts | 116° |
| 2026-04-28 04:53 | -7.05268 | 107.85178 | 27053 ft | 450 kts | 117° |
| 2026-04-28 04:53 | -7.06685 | 107.87998 | 27204 ft | 453 kts | 116° |
| 2026-04-28 04:53 | -7.08108 | 107.90834 | 27482 ft | 454 kts | 116° |
| 2026-04-28 04:54 | -7.09532 | 107.93670 | 27766 ft | 455 kts | 116° |
| 2026-04-28 04:54 | -7.10962 | 107.96519 | 28039 ft | 456 kts | 116° |
| 2026-04-28 04:54 | -7.12397 | 107.99378 | 28296 ft | 458 kts | 115° |
| 2026-04-28 04:54 | -7.13836 | 108.02245 | 28494 ft | 460 kts | 115° |
| 2026-04-28 04:55 | -7.15281 | 108.05126 | 28695 ft | 462 kts | 115° |
| 2026-04-28 04:55 | -7.16730 | 108.08018 | 28853 ft | 464 kts | 115° |
| 2026-04-28 04:55 | -7.18189 | 108.10926 | 28999 ft | 466 kts | 115° |
| 2026-04-28 04:55 | -7.19650 | 108.13840 | 29238 ft | 467 kts | 115° |
| 2026-04-28 04:56 | -7.21116 | 108.16761 | 29489 ft | 468 kts | 115° |
| 2026-04-28 04:56 | -7.22583 | 108.19688 | 29729 ft | 469 kts | 115° |
| 2026-04-28 04:56 | -7.24052 | 108.22627 | 29946 ft | 470 kts | 115° |
| 2026-04-28 04:56 | -7.25523 | 108.25570 | 30104 ft | 472 kts | 115° |
| 2026-04-28 04:57 | -7.27005 | 108.28535 | 30292 ft | 474 kts | 115° |
| 2026-04-28 04:57 | -7.28487 | 108.31499 | 30543 ft | 474 kts | 117° |
| 2026-04-28 04:57 | -7.29973 | 108.34464 | 30807 ft | 474 kts | 116° |
| 2026-04-28 04:58 | -7.32947 | 108.40410 | 30897 ft | 480 kts | 116° |
| 2026-04-28 04:58 | -7.35955 | 108.46427 | 30883 ft | 486 kts | 116° |
| 2026-04-28 04:59 | -7.39005 | 108.52518 | 30882 ft | 487 kts | 117° |
| 2026-04-28 04:59 | -7.42049 | 108.58609 | 30897 ft | 487 kts | 116° |
| 2026-04-28 05:00 | -7.45087 | 108.64714 | 30896 ft | 487 kts | 116° |
| 2026-04-28 05:00 | -7.48126 | 108.70803 | 30895 ft | 486 kts | 117° |
| 2026-04-28 05:01 | -7.51172 | 108.76890 | 30886 ft | 487 kts | 116° |
| 2026-04-28 05:01 | -7.54212 | 108.82981 | 30882 ft | 486 kts | 117° |
| 2026-04-28 05:01 | -7.55731 | 108.86030 | 30725 ft | 488 kts | 116° |
| 2026-04-28 05:02 | -7.57248 | 108.89078 | 30380 ft | 487 kts | 116° |
| 2026-04-28 05:02 | -7.58771 | 108.92136 | 30124 ft | 487 kts | 116° |
| 2026-04-28 05:02 | -7.60294 | 108.95189 | 29890 ft | 488 kts | 116° |
| 2026-04-28 05:03 | -7.63325 | 109.01314 | 29889 ft | 488 kts | 113° |
| 2026-04-28 05:03 | -7.64450 | 109.04541 | 29716 ft | 488 kts | 103° |
| 2026-04-28 05:03 | -7.65016 | 109.07895 | 29465 ft | 483 kts | 96° |
| 2026-04-28 05:03 | -7.65415 | 109.11204 | 29210 ft | 467 kts | 96° |
| 2026-04-28 05:04 | -7.65810 | 109.14403 | 28977 ft | 454 kts | 96° |
| 2026-04-28 05:04 | -7.66202 | 109.17544 | 28708 ft | 450 kts | 97° |
| 2026-04-28 05:04 | -7.66593 | 109.20660 | 28458 ft | 447 kts | 97° |
| 2026-04-28 05:04 | -7.66985 | 109.23764 | 28207 ft | 445 kts | 97° |
| 2026-04-28 05:05 | -7.67373 | 109.26850 | 27957 ft | 443 kts | 98° |
| 2026-04-28 05:05 | -7.67758 | 109.29927 | 27707 ft | 442 kts | 97° |
| 2026-04-28 05:05 | -7.68141 | 109.32991 | 27353 ft | 438 kts | 98° |
| 2026-04-28 05:05 | -7.68519 | 109.36029 | 26682 ft | 435 kts | 97° |
| 2026-04-28 05:06 | -7.68893 | 109.39046 | 26035 ft | 432 kts | 97° |
| 2026-04-28 05:06 | -7.69264 | 109.42042 | 25406 ft | 429 kts | 97° |
| 2026-04-28 05:06 | -7.69635 | 109.45011 | 24774 ft | 425 kts | 97° |
| 2026-04-28 05:06 | -7.70001 | 109.47959 | 24170 ft | 421 kts | 97° |
| 2026-04-28 05:07 | -7.70360 | 109.50877 | 23559 ft | 418 kts | 97° |
| 2026-04-28 05:07 | -7.70717 | 109.53769 | 22974 ft | 414 kts | 97° |
| 2026-04-28 05:07 | -7.71072 | 109.56631 | 22431 ft | 409 kts | 98° |
| 2026-04-28 05:07 | -7.71422 | 109.59459 | 21911 ft | 405 kts | 98° |
| 2026-04-28 05:08 | -7.71763 | 109.62219 | 21409 ft | 400 kts | 98° |
| 2026-04-28 05:08 | -7.72105 | 109.64988 | 20914 ft | 395 kts | 98° |
| 2026-04-28 05:08 | -7.72443 | 109.67721 | 20410 ft | 391 kts | 98° |
| 2026-04-28 05:08 | -7.72780 | 109.70433 | 19908 ft | 388 kts | 98° |
| 2026-04-28 05:09 | -7.73111 | 109.73121 | 19387 ft | 385 kts | 97° |
| 2026-04-28 05:09 | -7.73439 | 109.75786 | 18877 ft | 382 kts | 97° |
| 2026-04-28 05:09 | -7.73765 | 109.78433 | 18350 ft | 379 kts | 97° |
| 2026-04-28 05:09 | -7.74088 | 109.81063 | 17823 ft | 377 kts | 97° |
| 2026-04-28 05:10 | -7.74411 | 109.83680 | 17288 ft | 375 kts | 97° |
| 2026-04-28 05:10 | -7.74735 | 109.86286 | 16758 ft | 373 kts | 97° |
| 2026-04-28 05:10 | -7.75055 | 109.88871 | 16227 ft | 371 kts | 97° |
| 2026-04-28 05:10 | -7.75607 | 109.91392 | 15707 ft | 368 kts | 112° |
| 2026-04-28 05:11 | -7.76959 | 109.93566 | 15187 ft | 365 kts | 133° |
| 2026-04-28 05:11 | -7.78967 | 109.95090 | 14707 ft | 362 kts | 155° |
| 2026-04-28 05:11 | -7.81352 | 109.95787 | 14584 ft | 358 kts | 173° |
| 2026-04-28 05:11 | -7.83829 | 109.95652 | 14393 ft | 358 kts | 192° |
| 2026-04-28 05:12 | -7.86244 | 109.95028 | 14201 ft | 358 kts | 193° |
| 2026-04-28 05:12 | -7.88652 | 109.94388 | 14005 ft | 357 kts | 194° |
| 2026-04-28 05:12 | -7.91045 | 109.93745 | 13794 ft | 356 kts | 194° |
| 2026-04-28 05:12 | -7.93435 | 109.93101 | 13607 ft | 355 kts | 194° |
| 2026-04-28 05:13 | -7.95814 | 109.92460 | 13410 ft | 354 kts | 194° |
| 2026-04-28 05:13 | -7.98192 | 109.91821 | 13226 ft | 353 kts | 194° |
| 2026-04-28 05:13 | -8.00562 | 109.91187 | 13013 ft | 352 kts | 194° |
| 2026-04-28 05:13 | -8.02923 | 109.90556 | 12822 ft | 351 kts | 194° |
| 2026-04-28 05:14 | -8.05306 | 109.89925 | 12010 ft | 358 kts | 194° |
| 2026-04-28 05:14 | -8.07746 | 109.89284 | 11101 ft | 366 kts | 194° |
| 2026-04-28 05:14 | -8.10190 | 109.88643 | 10709 ft | 357 kts | 194° |
| 2026-04-28 05:14 | -8.12538 | 109.88026 | 10584 ft | 342 kts | 193° |
| 2026-04-28 05:15 | -8.14836 | 109.87788 | 10455 ft | 326 kts | 172° |
| 2026-04-28 05:15 | -8.16879 | 109.88565 | 10294 ft | 307 kts | 145° |
| 2026-04-28 05:15 | -8.18289 | 109.90103 | 9837 ft | 296 kts | 118° |
| 2026-04-28 05:15 | -8.18906 | 109.92052 | 9306 ft | 292 kts | 103° |
| 2026-04-28 05:16 | -8.19320 | 109.94055 | 8866 ft | 290 kts | 103° |
| 2026-04-28 05:16 | -8.19610 | 109.96067 | 8444 ft | 292 kts | 88° |
| 2026-04-28 05:16 | -8.19044 | 109.98013 | 8013 ft | 293 kts | 59° |
| 2026-04-28 05:17 | -8.15595 | 109.99975 | 7130 ft | 287 kts | 8° |
| 2026-04-28 05:17 | -8.13661 | 110.00263 | 6724 ft | 276 kts | 5° |
| 2026-04-28 05:17 | -8.11776 | 110.00160 | 6302 ft | 268 kts | 347° |
| 2026-04-28 05:17 | -8.10061 | 109.99482 | 6043 ft | 266 kts | 330° |
| 2026-04-28 05:18 | -8.08458 | 109.98550 | 5718 ft | 266 kts | 330° |
| 2026-04-28 05:18 | -8.06868 | 109.97607 | 5386 ft | 265 kts | 329° |
| 2026-04-28 05:18 | -8.05287 | 109.96658 | 5046 ft | 264 kts | 329° |
| 2026-04-28 05:18 | -8.03729 | 109.95722 | 4586 ft | 266 kts | 329° |
| 2026-04-28 05:19 | -8.02146 | 109.94771 | 4213 ft | 263 kts | 329° |
| 2026-04-28 05:19 | -8.00580 | 109.93831 | 3819 ft | 262 kts | 329° |
| 2026-04-28 05:19 | -7.99011 | 109.92892 | 3426 ft | 261 kts | 329° |
| 2026-04-28 05:19 | -7.97445 | 109.91954 | 2940 ft | 264 kts | 329° |
| 2026-04-28 05:20 | -7.95881 | 109.91016 | 2700 ft | 257 kts | 329° |
| 2026-04-28 05:20 | -7.94371 | 109.90111 | 2563 ft | 247 kts | 329° |
| 2026-04-28 05:20 | -7.92833 | 109.89451 | 2446 ft | 236 kts | 347° |
| 2026-04-28 05:20 | -7.91252 | 109.89078 | 2258 ft | 230 kts | 347° |
| 2026-04-28 05:21 | -7.89694 | 109.88900 | 2080 ft | 223 kts | 6° |
| 2026-04-28 05:21 | -7.88235 | 109.89315 | 1920 ft | 216 kts | 29° |
| 2026-04-28 05:21 | -7.87085 | 109.90209 | 1791 ft | 200 kts | 51° |
| 2026-04-28 05:21 | -7.86392 | 109.91321 | 1642 ft | 176 kts | 70° |
| 2026-04-28 05:22 | -7.86111 | 109.92450 | 1500 ft | 159 kts | 86° |
| 2026-04-28 05:22 | -7.86152 | 109.93538 | 1416 ft | 156 kts | 101° |
| 2026-04-28 05:22 | -7.86460 | 109.94582 | 1661 ft | 154 kts | 112° |
| 2026-04-28 05:22 | -7.86827 | 109.95583 | 1808 ft | 154 kts | 112° |
| 2026-04-28 05:23 | -7.87198 | 109.96596 | 1630 ft | 151 kts | 113° |
| 2026-04-28 05:23 | -7.87558 | 109.97580 | 1443 ft | 152 kts | 112° |
| 2026-04-28 05:23 | -7.87920 | 109.98571 | 1249 ft | 151 kts | 112° |
| 2026-04-28 05:23 | -7.88283 | 109.99566 | 1048 ft | 150 kts | 112° |
| 2026-04-28 05:24 | -7.88639 | 110.00552 | 839 ft | 150 kts | 111° |
| 2026-04-28 05:24 | -7.88998 | 110.01540 | 639 ft | 149 kts | 113° |
| 2026-04-28 05:24 | -7.89369 | 110.02513 | 474 ft | 150 kts | 113° |
| 2026-04-28 05:24 | -7.89722 | 110.03500 | 247 ft | 149 kts | 111° |
| 2026-04-28 05:25 | -7.90077 | 110.04473 | 52 ft | 147 kts | 111° |
| 2026-04-28 05:25 | -7.90407 | 110.05379 | 31 ft | 121 kts | 111° |
| 2026-04-28 05:25 | -7.90594 | 110.05891 | 36 ft | 45 kts | 110° |
| 2026-04-28 05:25 | -7.90669 | 110.06130 | 33 ft | 35 kts | 96° |
| 2026-04-28 05:26 | -7.90658 | 110.06269 | 33 ft | 12 kts | 78° |
| 2026-04-28 05:26 | -7.90641 | 110.06337 | 35 ft | 9 kts | 76° |
| 2026-04-28 05:26 | -7.90630 | 110.06398 | 35 ft | 10 kts | 88° |
| 2026-04-28 05:26 | -7.90612 | 110.06463 | 32 ft | 10 kts | 44° |
| 2026-04-28 05:27 | -7.90545 | 110.06491 | 34 ft | 13 kts | 20° |
| 2026-04-28 05:27 | -7.90474 | 110.06508 | 38 ft | 9 kts | 350° |
| 2026-04-28 05:27 | -7.90435 | 110.06448 | 38 ft | 14 kts | 291° |
| 2026-04-28 05:27 | -7.90403 | 110.06362 | 38 ft | 13 kts | 290° |
| 2026-04-28 05:28 | -7.90374 | 110.06284 | 38 ft | 11 kts | 290° |
| 2026-04-28 05:28 | -7.90347 | 110.06214 | 37 ft | 10 kts | 291° |
| 2026-04-28 05:28 | -7.90324 | 110.06153 | 36 ft | 9 kts | 291° |
| 2026-04-28 05:28 | -7.90310 | 110.06115 | 37 ft | 8 kts | 290° |
| 2026-04-28 05:29 | -7.90291 | 110.06064 | 38 ft | 7 kts | 290° |
| 2026-04-28 05:29 | -7.90274 | 110.06019 | 38 ft | 6 kts | 290° |
| 2026-04-28 05:29 | -7.90260 | 110.05979 | 38 ft | 6 kts | 290° |
| 2026-04-28 05:29 | -7.90252 | 110.05958 | 38 ft | 3 kts | 290° |
| 2026-04-28 05:30 | -7.90244 | 110.05936 | 38 ft | 3 kts | 290° |
| 2026-04-28 05:30 | -7.90230 | 110.05899 | 38 ft | 9 kts | 290° |
| 2026-04-28 05:30 | -7.90214 | 110.05856 | 38 ft | 10 kts | 290° |
| 2026-04-28 05:30 | -7.90191 | 110.05796 | 37 ft | 9 kts | 290° |
| 2026-04-28 05:31 | -7.90162 | 110.05761 | 38 ft | 5 kts | 351° |
| 2026-04-28 05:31 | -7.90129 | 110.05775 | 38 ft | 5 kts | 22° |
| 2026-04-28 05:31 | -7.90100 | 110.05786 | 38 ft | 4 kts | 20° |
| 2026-04-28 05:31 | -7.90078 | 110.05794 | 38 ft | 2 kts | 20° |
| 2026-04-28 05:32 | -7.90075 | 110.05795 | 38 ft | 0 kts | 20° |